METAR Data

Data at: 2315 UTC 26 Feb 2020

METAR for:KGHG (Marshfield Muni, MA, US)
Text:KGHG 262255Z AUTO 06005KT 1/4SM FG OVC001 06/06 A2996 RMK AO2
Temperature: 6.0°C ( 43°F)
Dewpoint: 6.0°C ( 43°F) [RH = 100%]
Pressure (altimeter):29.96 inches Hg (1014.6 mb)
Winds:from the ENE (60 degrees) at 6 MPH (5 knots; 2.6 m/s)
Visibility: 0.25 sm ( 0.40 km)
Ceiling:100 feet AGL
Clouds: overcast cloud deck at 100 feet AGL
Weather:FG (fog)
QC Flag:automated observation with no human augmentation